createdAt,value
2023-05-17T00:05:17.194Z,16.71
2023-05-17T00:07:44.500Z,16.68
2023-05-17T00:10:13.010Z,16.72
2023-05-17T00:12:41.714Z,16.71
2023-05-17T00:15:10.829Z,16.71
2023-05-17T00:17:38.724Z,16.66
2023-05-17T00:20:07.921Z,16.55
2023-05-17T00:22:35.313Z,16.59
2023-05-17T00:25:02.473Z,16.56
2023-05-17T00:27:29.552Z,16.59
2023-05-17T00:30:00.040Z,16.51
2023-05-17T00:32:27.480Z,16.53
2023-05-17T00:34:55.278Z,16.55
2023-05-17T00:37:23.837Z,16.61
2023-05-17T00:39:51.001Z,16.62
2023-05-17T00:42:18.658Z,16.66
2023-05-17T00:44:47.232Z,16.61
2023-05-17T00:47:16.823Z,16.55
2023-05-17T00:49:44.508Z,16.51
2023-05-17T00:52:12.350Z,16.38
2023-05-17T00:54:40.524Z,16.40
2023-05-17T00:57:09.050Z,16.25
2023-05-17T00:59:36.885Z,16.31
2023-05-17T01:02:07.127Z,16.25
2023-05-17T01:05:01.649Z,16.22
2023-05-17T01:07:29.151Z,16.22
2023-05-17T01:09:57.012Z,16.21
2023-05-17T01:12:38.614Z,16.22
2023-05-17T01:15:15.091Z,16.18
2023-05-17T01:17:54.536Z,16.24
2023-05-17T01:20:28.700Z,16.24
2023-05-17T01:23:24.173Z,16.21
2023-05-17T01:26:01.922Z,16.18
2023-05-17T01:28:33.955Z,16.20
2023-05-17T01:31:03.672Z,16.21
2023-05-17T01:33:32.568Z,16.14
2023-05-17T01:36:01.760Z,16.11
2023-05-17T01:38:31.383Z,16.11
2023-05-17T01:41:08.639Z,16.10
2023-05-17T01:43:49.050Z,16.10
2023-05-17T01:46:26.641Z,16.10
2023-05-17T01:49:08.778Z,16.10
2023-05-17T01:51:46.287Z,16.17
2023-05-17T01:54:16.400Z,16.15
2023-05-17T01:56:55.424Z,16.10
2023-05-17T01:59:26.810Z,16.07
2023-05-17T02:04:50.599Z,15.83
2023-05-17T02:07:20.196Z,15.73
2023-05-17T02:09:53.168Z,15.74
2023-05-17T02:12:21.251Z,15.76
2023-05-17T02:14:50.055Z,15.83
2023-05-17T02:17:17.697Z,15.86
2023-05-17T02:19:44.973Z,15.86
2023-05-17T02:22:12.511Z,15.83
2023-05-17T02:24:39.989Z,15.83
2023-05-17T02:27:07.405Z,15.69
2023-05-17T02:29:34.687Z,15.69
2023-05-17T02:32:03.877Z,15.67
2023-05-17T02:34:32.806Z,15.70
2023-05-17T02:37:00.636Z,15.67
2023-05-17T02:39:28.506Z,15.61
2023-05-17T02:41:56.103Z,15.66
2023-05-17T02:44:24.268Z,15.67
2023-05-17T02:46:53.611Z,15.59
2023-05-17T02:49:22.071Z,15.60
2023-05-17T02:51:49.592Z,15.61
2023-05-17T02:54:16.819Z,15.59
2023-05-17T02:56:44.381Z,15.57
2023-05-17T02:59:12.484Z,15.53
2023-05-17T03:01:42.331Z,15.49
2023-05-17T03:04:11.481Z,15.46
2023-05-17T03:06:41.263Z,15.49
2023-05-17T03:09:09.249Z,15.43
2023-05-17T03:11:39.360Z,15.40
2023-05-17T03:14:13.676Z,15.39
2023-05-17T03:16:40.861Z,15.42
2023-05-17T03:19:08.821Z,15.46
2023-05-17T03:21:37.000Z,15.40
2023-05-17T03:24:07.700Z,15.44
2023-05-17T03:26:37.209Z,15.44
2023-05-17T03:29:06.077Z,15.44
2023-05-17T03:31:34.228Z,15.52
2023-05-17T03:34:02.466Z,15.56
2023-05-17T03:36:30.577Z,15.59
2023-05-17T03:38:58.425Z,15.63
2023-05-17T03:41:29.558Z,15.71
2023-05-17T03:43:58.330Z,15.70
2023-05-17T03:46:28.006Z,15.64
2023-05-17T03:48:55.613Z,15.49
2023-05-17T03:51:23.293Z,15.40
2023-05-17T03:54:00.689Z,15.49
2023-05-17T03:56:34.060Z,15.44
2023-05-17T03:59:01.665Z,15.50
2023-05-17T04:01:29.141Z,15.60
2023-05-17T04:03:56.717Z,15.70
2023-05-17T04:06:24.900Z,15.74
2023-05-17T04:08:53.485Z,15.84
2023-05-17T04:11:22.034Z,15.96
2023-05-17T04:13:50.739Z,16.02
2023-05-17T04:16:22.753Z,16.12
2023-05-17T04:18:53.405Z,16.11
2023-05-17T04:21:21.207Z,16.17
2023-05-17T04:23:49.564Z,16.20
2023-05-17T04:26:20.437Z,16.26
2023-05-17T04:31:44.379Z,16.24
2023-05-17T04:34:13.330Z,16.20
2023-05-17T04:36:41.439Z,16.21
2023-05-17T04:39:10.020Z,16.18
2023-05-17T04:41:39.529Z,16.21
2023-05-17T04:44:12.450Z,16.29
2023-05-17T04:46:39.775Z,16.20
2023-05-17T04:49:07.636Z,16.28
2023-05-17T04:51:37.035Z,16.32
2023-05-17T04:54:05.394Z,16.31
2023-05-17T04:56:35.319Z,16.38
2023-05-17T04:59:05.454Z,16.45
2023-05-17T05:01:35.151Z,16.53
2023-05-17T05:04:04.382Z,16.61
2023-05-17T05:06:37.030Z,16.72
2023-05-17T05:09:04.999Z,16.79
2023-05-17T05:11:36.147Z,16.77
2023-05-17T05:14:05.242Z,16.90
2023-05-17T05:16:37.297Z,16.85
2023-05-17T05:19:05.254Z,16.96
2023-05-17T05:21:34.164Z,16.85
2023-05-17T05:24:01.621Z,16.86
2023-05-17T05:26:28.899Z,16.85
2023-05-17T05:28:58.561Z,16.92
2023-05-17T05:31:26.114Z,16.83
2023-05-17T05:34:01.109Z,16.76
2023-05-17T05:36:29.408Z,16.83
2023-05-17T05:38:56.675Z,16.83
2023-05-17T05:41:23.815Z,17.00
2023-05-17T05:43:51.285Z,17.03
2023-05-17T05:46:22.449Z,16.99
2023-05-17T05:48:51.994Z,16.97
2023-05-17T05:51:22.631Z,17.07
2023-05-17T05:53:51.578Z,17.07
2023-05-17T05:56:22.500Z,17.06
2023-05-17T05:58:52.026Z,16.97
2023-05-17T06:01:21.009Z,16.75
2023-05-17T06:03:48.471Z,16.85
2023-05-17T06:06:17.328Z,16.94
2023-05-17T06:08:46.331Z,17.04
2023-05-17T06:11:16.561Z,17.20
2023-05-17T06:13:46.740Z,17.38
2023-05-17T06:16:13.884Z,17.55
2023-05-17T06:18:41.318Z,17.44
2023-05-17T06:21:08.767Z,17.41
2023-05-17T06:23:36.173Z,17.41
2023-05-17T06:26:04.960Z,17.34
2023-05-17T06:28:35.600Z,17.58
2023-05-17T06:31:02.804Z,17.78
2023-05-17T06:33:30.456Z,17.88
2023-05-17T06:35:58.867Z,18.06
2023-05-17T06:38:26.681Z,18.30
2023-05-17T06:40:54.426Z,18.57
2023-05-17T06:43:23.450Z,18.81
2023-05-17T06:45:51.521Z,18.68
2023-05-17T06:48:19.282Z,18.46
2023-05-17T06:50:46.738Z,18.40
2023-05-17T06:53:14.175Z,18.28
2023-05-17T06:55:41.274Z,18.50
2023-05-17T06:58:08.816Z,18.73
2023-05-17T07:00:39.387Z,18.56
2023-05-17T07:03:06.488Z,18.70
2023-05-17T07:05:41.540Z,18.83
2023-05-17T07:08:10.571Z,19.21
2023-05-17T07:10:41.084Z,19.73
2023-05-17T07:13:08.441Z,20.14
2023-05-17T07:15:37.848Z,20.41
2023-05-17T07:18:05.086Z,20.50
2023-05-17T07:20:32.664Z,20.41
2023-05-17T07:23:02.399Z,20.40
2023-05-17T08:03:50.496Z,19.70
2023-05-17T08:06:20.935Z,19.80
2023-05-17T08:08:49.085Z,19.94
2023-05-17T08:11:16.068Z,19.89
2023-05-17T08:13:46.056Z,20.08
2023-05-17T08:16:15.106Z,20.19
2023-05-17T08:18:42.826Z,20.23
2023-05-17T08:21:12.960Z,20.27
2023-05-17T08:23:41.241Z,20.37
2023-05-17T08:26:08.540Z,20.50
2023-05-17T08:28:35.879Z,20.65
2023-05-17T08:31:03.672Z,20.60
2023-05-17T08:33:32.205Z,20.81
2023-05-17T08:35:59.661Z,21.02
2023-05-17T08:38:27.348Z,21.08
2023-05-17T08:40:55.827Z,21.28
2023-05-17T08:43:26.838Z,21.53
2023-05-17T08:45:55.285Z,21.72
2023-05-17T08:48:22.713Z,21.90
2023-05-17T08:50:56.026Z,22.04
2023-05-17T08:53:24.549Z,22.11
2023-05-17T08:55:58.192Z,22.14
2023-05-17T08:58:36.022Z,22.24
2023-05-17T09:01:09.798Z,22.30
2023-05-17T09:03:42.205Z,22.07
2023-05-17T09:06:10.877Z,21.94
2023-05-17T09:08:38.020Z,21.94
2023-05-17T09:11:07.523Z,21.77
2023-05-17T09:13:34.760Z,21.57
2023-05-17T09:16:01.843Z,21.46
2023-05-17T09:18:33.242Z,21.72
2023-05-17T09:21:04.091Z,22.17
2023-05-17T09:23:33.126Z,22.58
2023-05-17T09:26:09.326Z,22.81
2023-05-17T09:28:41.297Z,22.85
2023-05-17T09:31:09.379Z,22.81
2023-05-17T09:33:43.796Z,22.66
2023-05-17T09:36:18.514Z,22.66
2023-05-17T09:38:55.800Z,22.77
2023-05-17T09:41:27.965Z,22.88
2023-05-17T09:43:59.719Z,22.81
2023-05-17T09:46:27.071Z,22.72
2023-05-17T09:48:55.828Z,22.93
2023-05-17T09:51:34.005Z,23.15
2023-05-17T09:54:03.475Z,23.27
2023-05-17T09:56:31.544Z,23.31
2023-05-17T09:59:00.649Z,23.47
2023-05-17T10:01:30.269Z,23.39
2023-05-17T10:04:00.854Z,23.19
2023-05-17T10:06:44.051Z,23.00
2023-05-17T10:09:15.160Z,22.79
2023-05-17T10:11:46.839Z,22.65
2023-05-17T10:14:18.793Z,22.61
2023-05-17T10:16:46.752Z,22.40
2023-05-17T10:19:14.886Z,22.30
2023-05-17T10:21:43.266Z,22.05
2023-05-17T10:24:12.130Z,22.31
2023-05-17T10:26:42.655Z,22.49
2023-05-17T10:29:10.765Z,22.85
2023-05-17T10:31:37.914Z,23.31
2023-05-17T10:34:06.021Z,23.88
2023-05-17T10:36:34.339Z,24.59
2023-05-17T10:39:03.133Z,24.65
2023-05-17T10:41:34.921Z,24.48
2023-05-17T10:44:05.738Z,24.42
2023-05-17T10:46:32.922Z,24.39
2023-05-17T10:49:01.797Z,24.56
2023-05-17T10:51:32.768Z,24.66
2023-05-17T10:54:10.928Z,24.75
2023-05-17T10:56:42.621Z,24.73
2023-05-17T10:59:23.349Z,24.58
2023-05-17T11:02:09.455Z,24.80
2023-05-17T11:04:38.885Z,25.52
2023-05-17T11:07:30.074Z,25.72
2023-05-17T11:10:11.024Z,25.11
2023-05-17T11:12:42.607Z,24.65
2023-05-17T11:15:14.147Z,24.40
2023-05-17T11:17:50.986Z,24.29
2023-05-17T11:20:34.258Z,24.24
2023-05-17T11:23:03.639Z,24.18
2023-05-17T11:25:34.072Z,24.66
2023-05-17T11:28:17.315Z,25.58
2023-05-17T11:30:47.012Z,26.54
2023-05-17T11:33:25.331Z,26.91
2023-05-17T11:36:05.880Z,26.69
2023-05-17T11:38:33.445Z,26.28
2023-05-17T11:44:08.696Z,27.02
2023-05-17T11:46:38.399Z,27.53
2023-05-17T11:49:07.227Z,27.81
2023-05-17T11:51:54.197Z,27.96
2023-05-17T11:57:54.426Z,28.34
2023-05-17T12:00:41.744Z,28.51
2023-05-17T12:03:30.225Z,28.82
2023-05-17T12:06:18.879Z,28.57
2023-05-17T12:09:05.023Z,28.09
2023-05-17T12:11:51.033Z,27.63
2023-05-17T12:14:37.381Z,27.01
2023-05-17T12:17:31.634Z,27.27
2023-05-17T12:20:19.032Z,27.46
2023-05-17T12:23:05.113Z,27.07
2023-05-17T12:25:51.225Z,27.02
2023-05-17T12:28:38.802Z,26.80
2023-05-17T12:31:29.984Z,26.28
2023-05-17T12:34:18.462Z,26.26
2023-05-17T12:37:07.068Z,26.28
2023-05-17T12:39:53.669Z,26.22
2023-05-17T12:42:40.397Z,26.28
2023-05-17T12:45:29.432Z,26.15
2023-05-17T12:48:15.619Z,25.93
2023-05-17T12:51:12.449Z,25.72
2023-05-17T12:53:59.851Z,25.47
2023-05-17T12:56:46.212Z,25.82
2023-05-17T12:59:32.871Z,25.95
2023-05-17T13:02:20.418Z,25.69
2023-05-17T13:05:17.646Z,25.37
2023-05-17T13:08:21.206Z,25.11
2023-05-17T13:11:12.417Z,24.82
2023-05-17T13:13:58.400Z,24.70
2023-05-17T13:16:45.864Z,24.67
2023-05-17T13:19:32.594Z,24.42
2023-05-17T13:22:24.051Z,24.16
2023-05-17T13:25:09.826Z,24.18
2023-05-17T13:27:56.924Z,24.30
2023-05-17T13:30:43.016Z,24.56
2023-05-17T13:33:29.343Z,24.76
2023-05-17T13:36:15.317Z,24.83
2023-05-17T13:39:01.572Z,25.03
2023-05-17T13:41:48.023Z,25.75
2023-05-17T13:44:35.087Z,26.13
2023-05-17T13:47:21.203Z,26.00
2023-05-17T13:50:10.039Z,25.51
2023-05-17T13:52:56.428Z,24.99
2023-05-17T13:55:42.319Z,24.79
2023-05-17T13:58:28.494Z,24.69
2023-05-17T14:01:16.443Z,24.80
2023-05-17T14:04:02.395Z,25.14
2023-05-17T14:06:55.170Z,25.34
2023-05-17T14:09:41.041Z,25.28
2023-05-17T14:12:26.936Z,25.28
2023-05-17T14:15:12.941Z,25.42
2023-05-17T14:18:00.228Z,25.55
2023-05-17T14:20:48.654Z,25.34
2023-05-17T14:23:34.935Z,24.93
2023-05-17T14:26:20.803Z,24.76
2023-05-17T14:29:06.572Z,24.87
2023-05-17T14:31:52.841Z,25.14
2023-05-17T14:34:40.142Z,24.93
2023-05-17T14:37:26.277Z,24.82
2023-05-17T14:40:12.740Z,24.15
2023-05-17T14:42:58.882Z,23.87
2023-05-17T14:45:44.603Z,23.71
2023-05-17T14:48:30.838Z,23.88
2023-05-17T14:51:18.391Z,24.63
2023-05-17T14:54:04.502Z,25.31
2023-05-17T14:56:50.854Z,25.40
2023-05-17T14:59:36.742Z,25.26
2023-05-17T15:02:23.048Z,25.13
2023-05-17T15:05:10.297Z,24.86
2023-05-17T15:07:57.402Z,24.38
2023-05-17T15:10:43.430Z,24.12
2023-05-17T15:13:29.312Z,24.18
2023-05-17T15:16:14.800Z,24.36
2023-05-17T15:19:00.763Z,24.55
2023-05-17T15:21:47.170Z,24.40
2023-05-17T15:24:34.876Z,24.26
2023-05-17T15:27:20.775Z,24.35
2023-05-17T15:30:08.300Z,24.36
2023-05-17T15:32:54.046Z,24.55
2023-05-17T15:35:40.789Z,24.56
2023-05-17T15:38:26.809Z,24.29
2023-05-17T15:41:16.673Z,24.21
2023-05-17T15:44:02.502Z,24.04
2023-05-17T15:46:48.315Z,23.71
2023-05-17T15:49:34.239Z,23.22
2023-05-17T15:52:20.778Z,22.92
2023-05-17T15:55:07.723Z,22.64
2023-05-17T15:57:54.932Z,22.64
2023-05-17T16:00:40.769Z,22.64
2023-05-17T16:03:27.075Z,22.58
2023-05-17T16:06:13.185Z,22.61
2023-05-17T16:08:59.429Z,22.49
2023-05-17T16:11:45.476Z,22.40
2023-05-17T16:14:32.645Z,22.45
2023-05-17T16:17:18.111Z,22.47
2023-05-17T16:20:04.496Z,22.44
2023-05-17T16:22:51.227Z,22.40
2023-05-17T16:25:37.014Z,22.27
2023-05-17T16:28:23.303Z,22.33
2023-05-17T16:31:10.977Z,22.42
2023-05-17T16:33:57.230Z,22.24
2023-05-17T16:36:43.001Z,22.08
2023-05-17T16:39:28.702Z,21.93
2023-05-17T16:42:14.591Z,21.79
2023-05-17T16:45:25.603Z,21.66
2023-05-17T16:48:14.658Z,21.45
2023-05-17T16:51:01.101Z,21.46
2023-05-17T16:53:47.035Z,21.45
2023-05-17T16:56:33.246Z,21.33
2023-05-17T16:59:19.102Z,21.23
2023-05-17T17:02:05.643Z,21.18
2023-05-17T17:04:53.762Z,21.03
2023-05-17T17:07:39.624Z,21.03
2023-05-17T17:10:25.610Z,21.19
2023-05-17T17:13:11.605Z,21.22
2023-05-17T17:15:57.759Z,21.03
2023-05-17T17:18:43.712Z,20.90
2023-05-17T17:21:49.966Z,20.78
2023-05-17T17:24:39.104Z,20.70
2023-05-17T17:27:24.894Z,20.55
2023-05-17T17:30:12.008Z,20.57
2023-05-17T17:32:57.729Z,20.52
2023-05-17T17:35:43.608Z,20.40
2023-05-17T17:38:30.693Z,20.44
2023-05-17T17:41:17.116Z,20.51
2023-05-17T17:44:03.325Z,20.60
2023-05-17T17:46:49.441Z,20.55
2023-05-17T17:49:35.145Z,20.48
2023-05-17T17:52:20.917Z,20.50
2023-05-17T17:55:10.143Z,20.54
2023-05-17T17:57:55.846Z,20.45
2023-05-17T18:00:41.716Z,20.33
2023-05-17T18:03:27.536Z,20.20
2023-05-17T18:06:13.227Z,20.08
2023-05-17T18:08:59.532Z,19.94
2023-05-17T18:11:47.040Z,19.87
2023-05-17T18:14:33.093Z,19.80
2023-05-17T18:17:19.173Z,19.72
2023-05-17T18:20:06.952Z,19.66
2023-05-17T18:22:52.728Z,19.65
2023-05-17T18:25:39.162Z,19.70
2023-05-17T18:28:38.020Z,19.75
2023-05-17T18:31:26.780Z,19.73
2023-05-17T18:34:12.843Z,19.70
2023-05-17T18:36:58.521Z,19.69
2023-05-17T18:39:44.190Z,19.57
2023-05-17T18:42:30.065Z,19.44
2023-05-17T18:45:18.408Z,19.39
2023-05-17T18:48:04.509Z,19.31
2023-05-17T18:50:50.651Z,19.32
2023-05-17T18:53:36.526Z,19.29
2023-05-17T18:56:22.819Z,19.27
2023-05-17T18:59:08.847Z,19.22
2023-05-17T19:01:56.119Z,19.24
2023-05-17T19:04:41.947Z,19.21
2023-05-17T19:07:29.088Z,19.10
2023-05-17T19:10:15.044Z,19.01
2023-05-17T19:13:01.100Z,18.97
2023-05-17T19:15:46.927Z,18.97
2023-05-17T19:18:35.267Z,18.88
2023-05-17T19:21:21.498Z,18.77
2023-05-17T19:24:07.686Z,18.67
2023-05-17T19:26:53.918Z,18.59
2023-05-17T19:29:40.334Z,18.57
2023-05-17T19:32:26.353Z,18.53
2023-05-17T19:35:19.771Z,18.46
2023-05-17T19:38:05.685Z,18.43
2023-05-17T19:40:51.549Z,18.40
2023-05-17T19:43:37.808Z,18.42
2023-05-17T19:46:23.639Z,18.32
2023-05-17T19:49:09.737Z,18.35
2023-05-17T19:51:57.297Z,18.32
2023-05-17T19:54:43.801Z,18.32
2023-05-17T19:57:29.584Z,18.35
2023-05-17T20:00:16.361Z,18.40
2023-05-17T20:03:02.453Z,18.39
2023-05-17T20:05:48.550Z,18.36
2023-05-17T20:08:35.793Z,18.36
2023-05-17T20:11:21.456Z,18.42
2023-05-17T20:14:07.325Z,18.43
2023-05-17T20:16:54.463Z,18.46
2023-05-17T20:19:40.611Z,18.43
2023-05-17T20:22:26.905Z,18.28
2023-05-17T20:25:14.364Z,18.12
2023-05-17T20:28:00.487Z,18.06
2023-05-17T20:30:46.316Z,18.09
2023-05-17T20:33:32.142Z,18.10
2023-05-17T20:36:17.796Z,18.09
2023-05-17T20:39:03.947Z,18.02
2023-05-17T20:41:51.335Z,18.02
2023-05-17T20:44:37.299Z,17.99
2023-05-17T20:50:34.955Z,17.86
2023-05-17T20:53:20.997Z,17.84
2023-05-17T20:56:07.478Z,17.78
2023-05-17T20:58:55.196Z,17.71
2023-05-17T21:01:40.933Z,17.67
2023-05-17T21:04:27.162Z,17.70
2023-05-17T21:07:12.824Z,17.74
2023-05-17T21:09:58.642Z,17.70
2023-05-17T21:12:44.460Z,17.74
2023-05-17T21:15:32.396Z,17.65
2023-05-17T21:18:18.586Z,17.63
2023-05-17T21:21:04.443Z,17.61
2023-05-17T21:23:50.355Z,17.65
2023-05-17T21:26:38.478Z,17.68
2023-05-17T21:29:26.865Z,17.70
2023-05-17T21:32:14.331Z,17.70
2023-05-17T21:35:00.444Z,17.70
2023-05-17T21:37:46.688Z,17.71
2023-05-17T21:40:32.578Z,17.65
2023-05-17T21:43:18.824Z,17.54
2023-05-17T21:46:05.091Z,17.50
2023-05-17T21:48:52.300Z,17.51
2023-05-17T21:51:38.059Z,17.55
2023-05-17T21:54:25.161Z,17.67
2023-05-17T21:57:11.298Z,17.71
2023-05-17T21:59:57.349Z,17.70
2023-05-17T22:02:44.531Z,17.68
2023-05-17T22:05:31.657Z,17.70
2023-05-17T22:08:17.298Z,17.64
2023-05-17T22:11:03.229Z,17.57
2023-05-17T22:13:49.768Z,17.47
2023-05-17T22:16:36.247Z,17.44
2023-05-17T22:19:23.394Z,17.37
2023-05-17T22:22:11.146Z,17.33
2023-05-17T22:24:57.011Z,17.33
2023-05-17T22:27:42.801Z,17.30
2023-05-17T22:30:29.064Z,17.23
2023-05-17T22:33:15.658Z,17.16
2023-05-17T22:36:01.678Z,17.07
2023-05-17T22:38:48.812Z,16.97
2023-05-17T22:41:34.844Z,16.94
2023-05-17T22:44:21.981Z,16.96
2023-05-17T22:47:08.029Z,16.99
2023-05-17T22:49:53.929Z,16.99
2023-05-17T22:52:40.020Z,16.96
2023-05-17T22:55:27.762Z,16.96
2023-05-17T22:58:16.133Z,16.96
2023-05-17T23:01:01.683Z,16.96
2023-05-17T23:03:47.667Z,16.94
2023-05-17T23:06:33.770Z,16.89
2023-05-17T23:09:19.734Z,16.83
2023-05-17T23:12:07.981Z,16.79
2023-05-17T23:14:54.263Z,16.71
2023-05-17T23:17:40.016Z,16.68
2023-05-17T23:20:26.751Z,16.68
2023-05-17T23:23:12.832Z,16.66
2023-05-17T23:25:58.944Z,16.61
2023-05-17T23:28:45.738Z,16.59
2023-05-17T23:31:31.677Z,16.56
2023-05-17T23:34:17.611Z,16.59
2023-05-17T23:37:03.921Z,16.55
2023-05-17T23:39:49.609Z,16.49
2023-05-17T23:42:35.831Z,16.41
2023-05-17T23:45:22.871Z,16.36
2023-05-17T23:48:09.212Z,16.41
2023-05-17T23:50:55.701Z,16.48
2023-05-17T23:53:41.561Z,16.49
2023-05-17T23:56:27.238Z,16.48
2023-05-17T23:59:13.242Z,16.49
